sensor_id;sensor_type;location;lat;lon;timestamp;P1;P2;P0
47810;PMS5003;33575;52.600;7.318;2022-08-01T00:01:16;8;7;
47810;PMS5003;33575;52.600;7.318;2022-08-01T00:03:46;8;8;
47810;PMS5003;33575;52.600;7.318;2022-08-01T00:06:16;7;6;
47810;PMS5003;33575;52.600;7.318;2022-08-01T00:08:47;6;6;
47810;PMS5003;33575;52.600;7.318;2022-08-01T00:11:17;8;7;
47810;PMS5003;33575;52.600;7.318;2022-08-01T00:13:47;7;7;
47810;PMS5003;33575;52.600;7.318;2022-08-01T00:16:17;9;8;
47810;PMS5003;33575;52.600;7.318;2022-08-01T00:18:48;8;7;
47810;PMS5003;33575;52.600;7.318;2022-08-01T00:21:18;7;6;
47810;PMS5003;33575;52.600;7.318;2022-08-01T00:23:48;7;7;
47810;PMS5003;33575;52.600;7.318;2022-08-01T00:26:18;8;7;
47810;PMS5003;33575;52.600;7.318;2022-08-01T00:28:49;9;8;
47810;PMS5003;33575;52.600;7.318;2022-08-01T00:31:21;8;8;
47810;PMS5003;33575;52.600;7.318;2022-08-01T00:33:49;7;7;
47810;PMS5003;33575;52.600;7.318;2022-08-01T00:36:20;8;7;
47810;PMS5003;33575;52.600;7.318;2022-08-01T00:38:50;9;9;
47810;PMS5003;33575;52.600;7.318;2022-08-01T00:41:20;7;7;
47810;PMS5003;33575;52.600;7.318;2022-08-01T00:43:50;7;7;
47810;PMS5003;33575;52.600;7.318;2022-08-01T00:46:21;11;10;
47810;PMS5003;33575;52.600;7.318;2022-08-01T00:48:51;7;6;
47810;PMS5003;33575;52.600;7.318;2022-08-01T00:51:22;8;8;
47810;PMS5003;33575;52.600;7.318;2022-08-01T00:53:53;7;7;
47810;PMS5003;33575;52.600;7.318;2022-08-01T00:56:23;8;8;
47810;PMS5003;33575;52.600;7.318;2022-08-01T00:58:53;8;7;
47810;PMS5003;33575;52.600;7.318;2022-08-01T01:01:23;10;9;
47810;PMS5003;33575;52.600;7.318;2022-08-01T01:03:58;8;8;
47810;PMS5003;33575;52.600;7.318;2022-08-01T01:06:25;9;9;
47810;PMS5003;33575;52.600;7.318;2022-08-01T01:08:56;11;9;
47810;PMS5003;33575;52.600;7.318;2022-08-01T01:11:25;10;9;
47810;PMS5003;33575;52.600;7.318;2022-08-01T01:13:56;9;9;
47810;PMS5003;33575;52.600;7.318;2022-08-01T01:16:24;8;8;
47810;PMS5003;33575;52.600;7.318;2022-08-01T01:18:55;10;10;
47810;PMS5003;33575;52.600;7.318;2022-08-01T01:21:30;9;8;
47810;PMS5003;33575;52.600;7.318;2022-08-01T01:23:57;9;8;
47810;PMS5003;33575;52.600;7.318;2022-08-01T01:26:28;9;8;
47810;PMS5003;33575;52.600;7.318;2022-08-01T01:28:58;9;9;
47810;PMS5003;33575;52.600;7.318;2022-08-01T01:31:25;48;48;
47810;PMS5003;33575;52.600;7.318;2022-08-01T01:33:56;58;58;
47810;PMS5003;33575;52.600;7.318;2022-08-01T01:36:26;11;10;
47810;PMS5003;33575;52.600;7.318;2022-08-01T01:38:56;7;7;
47810;PMS5003;33575;52.600;7.318;2022-08-01T01:41:27;9;9;
47810;PMS5003;33575;52.600;7.318;2022-08-01T01:43:57;11;10;
47810;PMS5003;33575;52.600;7.318;2022-08-01T01:46:27;10;9;
47810;PMS5003;33575;52.600;7.318;2022-08-01T01:48:57;8;8;
47810;PMS5003;33575;52.600;7.318;2022-08-01T01:51:28;10;9;
47810;PMS5003;33575;52.600;7.318;2022-08-01T01:53:58;13;12;
47810;PMS5003;33575;52.600;7.318;2022-08-01T01:56:28;9;9;
47810;PMS5003;33575;52.600;7.318;2022-08-01T01:59:00;14;12;
47810;PMS5003;33575;52.600;7.318;2022-08-01T02:01:34;8;8;
47810;PMS5003;33575;52.600;7.318;2022-08-01T02:03:59;10;9;
47810;PMS5003;33575;52.600;7.318;2022-08-01T02:06:29;8;8;
47810;PMS5003;33575;52.600;7.318;2022-08-01T02:09:00;8;8;
47810;PMS5003;33575;52.600;7.318;2022-08-01T02:11:30;10;9;
47810;PMS5003;33575;52.600;7.318;2022-08-01T02:14:01;11;9;
47810;PMS5003;33575;52.600;7.318;2022-08-01T02:16:32;7;6;
47810;PMS5003;33575;52.600;7.318;2022-08-01T02:19:01;13;12;
47810;PMS5003;33575;52.600;7.318;2022-08-01T02:21:32;44;44;
47810;PMS5003;33575;52.600;7.318;2022-08-01T02:24:07;29;29;
47810;PMS5003;33575;52.600;7.318;2022-08-01T02:26:31;34;33;
47810;PMS5003;33575;52.600;7.318;2022-08-01T02:29:02;17;17;
47810;PMS5003;33575;52.600;7.318;2022-08-01T02:31:34;14;14;
47810;PMS5003;33575;52.600;7.318;2022-08-01T02:34:04;52;52;
47810;PMS5003;33575;52.600;7.318;2022-08-01T02:36:34;15;13;
47810;PMS5003;33575;52.600;7.318;2022-08-01T02:39:04;8;8;
47810;PMS5003;33575;52.600;7.318;2022-08-01T02:41:34;49;48;
47810;PMS5003;33575;52.600;7.318;2022-08-01T02:44:05;72;70;
47810;PMS5003;33575;52.600;7.318;2022-08-01T02:46:35;23;22;
47810;PMS5003;33575;52.600;7.318;2022-08-01T02:49:05;26;26;
47810;PMS5003;33575;52.600;7.318;2022-08-01T02:51:35;40;40;
47810;PMS5003;33575;52.600;7.318;2022-08-01T02:54:05;60;59;
47810;PMS5003;33575;52.600;7.318;2022-08-01T02:56:36;59;58;
47810;PMS5003;33575;52.600;7.318;2022-08-01T02:59:07;34;33;
47810;PMS5003;33575;52.600;7.318;2022-08-01T03:01:36;32;30;
47810;PMS5003;33575;52.600;7.318;2022-08-01T03:04:07;51;50;
47810;PMS5003;33575;52.600;7.318;2022-08-01T03:06:37;32;29;
47810;PMS5003;33575;52.600;7.318;2022-08-01T03:09:07;22;22;
47810;PMS5003;33575;52.600;7.318;2022-08-01T03:11:38;61;61;
47810;PMS5003;33575;52.600;7.318;2022-08-01T03:14:09;29;28;
47810;PMS5003;33575;52.600;7.318;2022-08-01T03:16:38;49;48;
47810;PMS5003;33575;52.600;7.318;2022-08-01T03:19:08;23;22;
47810;PMS5003;33575;52.600;7.318;2022-08-01T03:21:39;50;48;
47810;PMS5003;33575;52.600;7.318;2022-08-01T03:24:09;11;10;
47810;PMS5003;33575;52.600;7.318;2022-08-01T03:26:39;10;10;
47810;PMS5003;33575;52.600;7.318;2022-08-01T03:29:11;23;21;
47810;PMS5003;33575;52.600;7.318;2022-08-01T03:31:40;51;51;
47810;PMS5003;33575;52.600;7.318;2022-08-01T03:34:11;12;10;
47810;PMS5003;33575;52.600;7.318;2022-08-01T03:36:43;11;10;
47810;PMS5003;33575;52.600;7.318;2022-08-01T03:39:11;9;9;
47810;PMS5003;33575;52.600;7.318;2022-08-01T03:41:43;10;9;
47810;PMS5003;33575;52.600;7.318;2022-08-01T03:44:13;11;10;
47810;PMS5003;33575;52.600;7.318;2022-08-01T03:46:42;10;9;
47810;PMS5003;33575;52.600;7.318;2022-08-01T03:49:14;11;10;
47810;PMS5003;33575;52.600;7.318;2022-08-01T03:51:42;9;8;
47810;PMS5003;33575;52.600;7.318;2022-08-01T03:54:12;11;11;
47810;PMS5003;33575;52.600;7.318;2022-08-01T03:56:43;9;9;
47810;PMS5003;33575;52.600;7.318;2022-08-01T03:59:13;7;6;
47810;PMS5003;33575;52.600;7.318;2022-08-01T04:01:44;8;8;
47810;PMS5003;33575;52.600;7.318;2022-08-01T04:04:14;8;8;
47810;PMS5003;33575;52.600;7.318;2022-08-01T04:06:44;8;8;
47810;PMS5003;33575;52.600;7.318;2022-08-01T04:09:14;8;7;
47810;PMS5003;33575;52.600;7.318;2022-08-01T04:11:45;8;7;
47810;PMS5003;33575;52.600;7.318;2022-08-01T04:14:15;8;8;
47810;PMS5003;33575;52.600;7.318;2022-08-01T04:16:46;9;9;
47810;PMS5003;33575;52.600;7.318;2022-08-01T04:19:15;9;9;
47810;PMS5003;33575;52.600;7.318;2022-08-01T04:21:46;8;7;
47810;PMS5003;33575;52.600;7.318;2022-08-01T04:24:17;9;9;
47810;PMS5003;33575;52.600;7.318;2022-08-01T04:26:46;10;8;
47810;PMS5003;33575;52.600;7.318;2022-08-01T04:29:17;7;7;
47810;PMS5003;33575;52.600;7.318;2022-08-01T04:31:48;10;8;
47810;PMS5003;33575;52.600;7.318;2022-08-01T04:34:19;8;8;
47810;PMS5003;33575;52.600;7.318;2022-08-01T04:36:47;11;10;
47810;PMS5003;33575;52.600;7.318;2022-08-01T04:39:18;9;9;
47810;PMS5003;33575;52.600;7.318;2022-08-01T04:41:48;9;8;
47810;PMS5003;33575;52.600;7.318;2022-08-01T04:44:18;9;8;
47810;PMS5003;33575;52.600;7.318;2022-08-01T04:46:48;8;8;
47810;PMS5003;33575;52.600;7.318;2022-08-01T04:49:19;9;9;
47810;PMS5003;33575;52.600;7.318;2022-08-01T04:51:49;9;9;
47810;PMS5003;33575;52.600;7.318;2022-08-01T04:54:19;10;9;
47810;PMS5003;33575;52.600;7.318;2022-08-01T04:56:52;9;9;
47810;PMS5003;33575;52.600;7.318;2022-08-01T04:59:21;6;6;
47810;PMS5003;33575;52.600;7.318;2022-08-01T05:01:50;7;7;
47810;PMS5003;33575;52.600;7.318;2022-08-01T05:04:20;7;7;
47810;PMS5003;33575;52.600;7.318;2022-08-01T05:06:50;7;6;
47810;PMS5003;33575;52.600;7.318;2022-08-01T05:09:21;5;5;
47810;PMS5003;33575;52.600;7.318;2022-08-01T05:11:51;7;7;
47810;PMS5003;33575;52.600;7.318;2022-08-01T05:14:21;3;3;
47810;PMS5003;33575;52.600;7.318;2022-08-01T05:16:52;4;4;
47810;PMS5003;33575;52.600;7.318;2022-08-01T05:19:22;5;5;
47810;PMS5003;33575;52.600;7.318;2022-08-01T05:21:52;3;3;
47810;PMS5003;33575;52.600;7.318;2022-08-01T05:24:23;2;2;
47810;PMS5003;33575;52.600;7.318;2022-08-01T05:26:53;3;3;
47810;PMS5003;33575;52.600;7.318;2022-08-01T05:29:23;2;2;
47810;PMS5003;33575;52.600;7.318;2022-08-01T05:31:53;4;3;
47810;PMS5003;33575;52.600;7.318;2022-08-01T05:34:24;6;5;
47810;PMS5003;33575;52.600;7.318;2022-08-01T05:36:58;3;3;
47810;PMS5003;33575;52.600;7.318;2022-08-01T05:39:24;3;3;
47810;PMS5003;33575;52.600;7.318;2022-08-01T05:41:55;4;3;
47810;PMS5003;33575;52.600;7.318;2022-08-01T05:44:25;5;3;
47810;PMS5003;33575;52.600;7.318;2022-08-01T05:46:55;4;4;
47810;PMS5003;33575;52.600;7.318;2022-08-01T05:49:26;3;2;
47810;PMS5003;33575;52.600;7.318;2022-08-01T05:51:56;4;3;
47810;PMS5003;33575;52.600;7.318;2022-08-01T05:54:26;4;3;
47810;PMS5003;33575;52.600;7.318;2022-08-01T05:56:56;4;4;
47810;PMS5003;33575;52.600;7.318;2022-08-01T05:59:27;3;3;
47810;PMS5003;33575;52.600;7.318;2022-08-01T06:01:57;5;5;
47810;PMS5003;33575;52.600;7.318;2022-08-01T06:04:27;3;3;
47810;PMS5003;33575;52.600;7.318;2022-08-01T06:06:58;4;4;
47810;PMS5003;33575;52.600;7.318;2022-08-01T06:09:28;5;5;
47810;PMS5003;33575;52.600;7.318;2022-08-01T06:11:58;6;4;
47810;PMS5003;33575;52.600;7.318;2022-08-01T06:14:28;3;3;
47810;PMS5003;33575;52.600;7.318;2022-08-01T06:16:59;4;4;
47810;PMS5003;33575;52.600;7.318;2022-08-01T06:19:29;5;4;
47810;PMS5003;33575;52.600;7.318;2022-08-01T06:21:59;5;5;
47810;PMS5003;33575;52.600;7.318;2022-08-01T06:24:30;7;6;
47810;PMS5003;33575;52.600;7.318;2022-08-01T06:27:01;6;5;
47810;PMS5003;33575;52.600;7.318;2022-08-01T06:29:31;7;6;
47810;PMS5003;33575;52.600;7.318;2022-08-01T06:32:01;5;5;
47810;PMS5003;33575;52.600;7.318;2022-08-01T06:34:31;6;4;
47810;PMS5003;33575;52.600;7.318;2022-08-01T06:37:06;7;5;
47810;PMS5003;33575;52.600;7.318;2022-08-01T06:39:32;4;4;
47810;PMS5003;33575;52.600;7.318;2022-08-01T06:42:02;6;6;
47810;PMS5003;33575;52.600;7.318;2022-08-01T06:44:32;7;6;
47810;PMS5003;33575;52.600;7.318;2022-08-01T06:47:02;5;5;
47810;PMS5003;33575;52.600;7.318;2022-08-01T06:49:33;8;5;
47810;PMS5003;33575;52.600;7.318;2022-08-01T06:52:03;7;7;
47810;PMS5003;33575;52.600;7.318;2022-08-01T06:54:33;7;6;
47810;PMS5003;33575;52.600;7.318;2022-08-01T06:57:04;6;5;
47810;PMS5003;33575;52.600;7.318;2022-08-01T06:59:34;7;6;
47810;PMS5003;33575;52.600;7.318;2022-08-01T07:02:05;4;4;
47810;PMS5003;33575;52.600;7.318;2022-08-01T07:04:34;4;4;
47810;PMS5003;33575;52.600;7.318;2022-08-01T07:07:05;6;5;
47810;PMS5003;33575;52.600;7.318;2022-08-01T07:09:35;6;6;
47810;PMS5003;33575;52.600;7.318;2022-08-01T07:12:06;6;5;
47810;PMS5003;33575;52.600;7.318;2022-08-01T07:14:36;8;7;
47810;PMS5003;33575;52.600;7.318;2022-08-01T07:17:06;6;5;
47810;PMS5003;33575;52.600;7.318;2022-08-01T07:19:39;9;7;
47810;PMS5003;33575;52.600;7.318;2022-08-01T07:22:07;7;6;
47810;PMS5003;33575;52.600;7.318;2022-08-01T07:24:37;5;5;
47810;PMS5003;33575;52.600;7.318;2022-08-01T07:27:12;6;5;
47810;PMS5003;33575;52.600;7.318;2022-08-01T07:29:37;6;6;
47810;PMS5003;33575;52.600;7.318;2022-08-01T07:32:08;5;5;
47810;PMS5003;33575;52.600;7.318;2022-08-01T07:34:38;5;5;
47810;PMS5003;33575;52.600;7.318;2022-08-01T07:37:08;6;4;
47810;PMS5003;33575;52.600;7.318;2022-08-01T07:39:39;6;6;
47810;PMS5003;33575;52.600;7.318;2022-08-01T07:42:10;5;4;
47810;PMS5003;33575;52.600;7.318;2022-08-01T07:44:39;8;7;
47810;PMS5003;33575;52.600;7.318;2022-08-01T07:47:10;7;5;
47810;PMS5003;33575;52.600;7.318;2022-08-01T07:49:41;8;6;
47810;PMS5003;33575;52.600;7.318;2022-08-01T07:52:10;8;7;
47810;PMS5003;33575;52.600;7.318;2022-08-01T07:54:41;8;6;
47810;PMS5003;33575;52.600;7.318;2022-08-01T07:57:11;6;4;
47810;PMS5003;33575;52.600;7.318;2022-08-01T07:59:41;9;7;
47810;PMS5003;33575;52.600;7.318;2022-08-01T08:02:12;7;6;
47810;PMS5003;33575;52.600;7.318;2022-08-01T08:04:47;7;7;
47810;PMS5003;33575;52.600;7.318;2022-08-01T08:07:12;7;6;
47810;PMS5003;33575;52.600;7.318;2022-08-01T08:09:43;10;8;
47810;PMS5003;33575;52.600;7.318;2022-08-01T08:12:13;7;7;
47810;PMS5003;33575;52.600;7.318;2022-08-01T08:14:43;8;8;
47810;PMS5003;33575;52.600;7.318;2022-08-01T08:17:14;8;7;
47810;PMS5003;33575;52.600;7.318;2022-08-01T08:19:44;10;8;
47810;PMS5003;33575;52.600;7.318;2022-08-01T08:22:14;9;7;
47810;PMS5003;33575;52.600;7.318;2022-08-01T08:24:47;6;6;
47810;PMS5003;33575;52.600;7.318;2022-08-01T08:27:15;5;4;
47810;PMS5003;33575;52.600;7.318;2022-08-01T08:29:45;5;5;
47810;PMS5003;33575;52.600;7.318;2022-08-01T08:32:15;6;6;
47810;PMS5003;33575;52.600;7.318;2022-08-01T08:34:46;7;5;
47810;PMS5003;33575;52.600;7.318;2022-08-01T08:37:17;5;5;
47810;PMS5003;33575;52.600;7.318;2022-08-01T08:39:46;6;5;
47810;PMS5003;33575;52.600;7.318;2022-08-01T08:42:17;3;3;
47810;PMS5003;33575;52.600;7.318;2022-08-01T08:44:47;9;7;
47810;PMS5003;33575;52.600;7.318;2022-08-01T08:47:22;4;4;
47810;PMS5003;33575;52.600;7.318;2022-08-01T08:49:51;5;5;
47810;PMS5003;33575;52.600;7.318;2022-08-01T08:52:18;7;4;
47810;PMS5003;33575;52.600;7.318;2022-08-01T08:54:49;10;6;
47810;PMS5003;33575;52.600;7.318;2022-08-01T08:57:19;5;4;
47810;PMS5003;33575;52.600;7.318;2022-08-01T08:59:49;6;6;
47810;PMS5003;33575;52.600;7.318;2022-08-01T09:02:19;6;6;
47810;PMS5003;33575;52.600;7.318;2022-08-01T09:04:49;5;5;
47810;PMS5003;33575;52.600;7.318;2022-08-01T09:07:20;6;5;
47810;PMS5003;33575;52.600;7.318;2022-08-01T09:09:51;6;5;
47810;PMS5003;33575;52.600;7.318;2022-08-01T09:12:20;6;6;
47810;PMS5003;33575;52.600;7.318;2022-08-01T09:14:51;4;4;
47810;PMS5003;33575;52.600;7.318;2022-08-01T09:17:21;5;5;
47810;PMS5003;33575;52.600;7.318;2022-08-01T09:19:52;8;5;
47810;PMS5003;33575;52.600;7.318;2022-08-01T09:22:22;7;6;
47810;PMS5003;33575;52.600;7.318;2022-08-01T09:27:23;8;6;
47810;PMS5003;33575;52.600;7.318;2022-08-01T09:32:26;9;7;
47810;PMS5003;33575;52.600;7.318;2022-08-01T09:34:53;5;5;
47810;PMS5003;33575;52.600;7.318;2022-08-01T09:37:29;9;6;
47810;PMS5003;33575;52.600;7.318;2022-08-01T09:39:54;6;5;
47810;PMS5003;33575;52.600;7.318;2022-08-01T09:42:29;5;5;
47810;PMS5003;33575;52.600;7.318;2022-08-01T09:44:55;6;6;
47810;PMS5003;33575;52.600;7.318;2022-08-01T09:49:58;5;5;
47810;PMS5003;33575;52.600;7.318;2022-08-01T09:52:29;7;5;
47810;PMS5003;33575;52.600;7.318;2022-08-01T09:54:56;5;5;
47810;PMS5003;33575;52.600;7.318;2022-08-01T09:57:26;4;3;
47810;PMS5003;33575;52.600;7.318;2022-08-01T10:00:00;5;5;
47810;PMS5003;33575;52.600;7.318;2022-08-01T10:02:29;6;6;
47810;PMS5003;33575;52.600;7.318;2022-08-01T10:05:02;6;4;
47810;PMS5003;33575;52.600;7.318;2022-08-01T10:07:28;5;4;
47810;PMS5003;33575;52.600;7.318;2022-08-01T10:09:59;6;5;
47810;PMS5003;33575;52.600;7.318;2022-08-01T10:12:29;6;4;
47810;PMS5003;33575;52.600;7.318;2022-08-01T10:14:57;6;4;
47810;PMS5003;33575;52.600;7.318;2022-08-01T10:17:32;4;4;
47810;PMS5003;33575;52.600;7.318;2022-08-01T10:19:59;4;3;
47810;PMS5003;33575;52.600;7.318;2022-08-01T10:22:30;5;5;
47810;PMS5003;33575;52.600;7.318;2022-08-01T10:25:00;6;4;
47810;PMS5003;33575;52.600;7.318;2022-08-01T10:27:34;4;3;
47810;PMS5003;33575;52.600;7.318;2022-08-01T10:30:04;6;4;
47810;PMS5003;33575;52.600;7.318;2022-08-01T10:32:30;5;3;
47810;PMS5003;33575;52.600;7.318;2022-08-01T10:35:05;6;5;
47810;PMS5003;33575;52.600;7.318;2022-08-01T10:37:30;9;4;
47810;PMS5003;33575;52.600;7.318;2022-08-01T10:40:05;7;6;
47810;PMS5003;33575;52.600;7.318;2022-08-01T10:42:30;6;5;
47810;PMS5003;33575;52.600;7.318;2022-08-01T10:45:01;6;4;
47810;PMS5003;33575;52.600;7.318;2022-08-01T10:47:38;7;5;
47810;PMS5003;33575;52.600;7.318;2022-08-01T10:50:04;4;4;
47810;PMS5003;33575;52.600;7.318;2022-08-01T10:52:31;8;5;
47810;PMS5003;33575;52.600;7.318;2022-08-01T10:55:05;4;3;
47810;PMS5003;33575;52.600;7.318;2022-08-01T11:00:02;5;4;
47810;PMS5003;33575;52.600;7.318;2022-08-01T11:02:33;6;4;
47810;PMS5003;33575;52.600;7.318;2022-08-01T11:05:07;44;43;
47810;PMS5003;33575;52.600;7.318;2022-08-01T11:07:41;24;24;
47810;PMS5003;33575;52.600;7.318;2022-08-01T11:10:03;12;11;
47810;PMS5003;33575;52.600;7.318;2022-08-01T11:12:39;12;11;
47810;PMS5003;33575;52.600;7.318;2022-08-01T11:17:39;9;9;
47810;PMS5003;33575;52.600;7.318;2022-08-01T11:20:05;7;6;
47810;PMS5003;33575;52.600;7.318;2022-08-01T11:25:05;4;4;
47810;PMS5003;33575;52.600;7.318;2022-08-01T11:27:37;5;3;
47810;PMS5003;33575;52.600;7.318;2022-08-01T11:32:45;5;5;
47810;PMS5003;33575;52.600;7.318;2022-08-01T11:35:07;5;4;
47810;PMS5003;33575;52.600;7.318;2022-08-01T11:37:36;4;4;
47810;PMS5003;33575;52.600;7.318;2022-08-01T11:42:36;4;4;
47810;PMS5003;33575;52.600;7.318;2022-08-01T11:45:07;5;4;
47810;PMS5003;33575;52.600;7.318;2022-08-01T11:50:07;4;3;
47810;PMS5003;33575;52.600;7.318;2022-08-01T11:52:37;10;10;
47810;PMS5003;33575;52.600;7.318;2022-08-01T11:55:11;9;9;
47810;PMS5003;33575;52.600;7.318;2022-08-01T11:57:39;9;8;
47810;PMS5003;33575;52.600;7.318;2022-08-01T12:00:14;6;6;
47810;PMS5003;33575;52.600;7.318;2022-08-01T12:02:39;14;14;
47810;PMS5003;33575;52.600;7.318;2022-08-01T12:05:13;16;16;
47810;PMS5003;33575;52.600;7.318;2022-08-01T12:07:40;7;6;
47810;PMS5003;33575;52.600;7.318;2022-08-01T12:10:11;6;5;
47810;PMS5003;33575;52.600;7.318;2022-08-01T12:12:42;6;6;
47810;PMS5003;33575;52.600;7.318;2022-08-01T12:15:11;5;4;
47810;PMS5003;33575;52.600;7.318;2022-08-01T12:17:44;5;5;
47810;PMS5003;33575;52.600;7.318;2022-08-01T12:20:11;7;7;
47810;PMS5003;33575;52.600;7.318;2022-08-01T12:22:42;9;9;
47810;PMS5003;33575;52.600;7.318;2022-08-01T12:25:12;11;8;
47810;PMS5003;33575;52.600;7.318;2022-08-01T12:27:44;9;8;
47810;PMS5003;33575;52.600;7.318;2022-08-01T12:30:13;5;5;
47810;PMS5003;33575;52.600;7.318;2022-08-01T12:32:42;6;6;
47810;PMS5003;33575;52.600;7.318;2022-08-01T12:35:18;5;5;
47810;PMS5003;33575;52.600;7.318;2022-08-01T12:37:43;5;5;
47810;PMS5003;33575;52.600;7.318;2022-08-01T12:40:13;10;8;
47810;PMS5003;33575;52.600;7.318;2022-08-01T12:42:43;10;8;
47810;PMS5003;33575;52.600;7.318;2022-08-01T12:45:14;5;4;
47810;PMS5003;33575;52.600;7.318;2022-08-01T12:47:44;4;4;
47810;PMS5003;33575;52.600;7.318;2022-08-01T12:50:15;4;4;
47810;PMS5003;33575;52.600;7.318;2022-08-01T12:52:44;6;5;
47810;PMS5003;33575;52.600;7.318;2022-08-01T12:55:15;5;5;
47810;PMS5003;33575;52.600;7.318;2022-08-01T12:57:45;4;4;
47810;PMS5003;33575;52.600;7.318;2022-08-01T13:00:17;4;4;
47810;PMS5003;33575;52.600;7.318;2022-08-01T13:02:45;5;4;
47810;PMS5003;33575;52.600;7.318;2022-08-01T13:05:15;5;5;
47810;PMS5003;33575;52.600;7.318;2022-08-01T13:07:47;4;4;
47810;PMS5003;33575;52.600;7.318;2022-08-01T13:12:50;4;4;
47810;PMS5003;33575;52.600;7.318;2022-08-01T13:15:19;3;3;
47810;PMS5003;33575;52.600;7.318;2022-08-01T13:17:47;3;3;
47810;PMS5003;33575;52.600;7.318;2022-08-01T13:20:23;4;3;
47810;PMS5003;33575;52.600;7.318;2022-08-01T13:22:47;4;4;
47810;PMS5003;33575;52.600;7.318;2022-08-01T13:25:22;5;5;
47810;PMS5003;33575;52.600;7.318;2022-08-01T13:30:19;3;2;
47810;PMS5003;33575;52.600;7.318;2022-08-01T13:37:49;3;2;
47810;PMS5003;33575;52.600;7.318;2022-08-01T13:43:14;6;4;
47810;PMS5003;33575;52.600;7.318;2022-08-01T13:45:27;5;4;
47810;PMS5003;33575;52.600;7.318;2022-08-01T13:47:55;4;4;
47810;PMS5003;33575;52.600;7.318;2022-08-01T13:50:20;7;6;
47810;PMS5003;33575;52.600;7.318;2022-08-01T13:52:51;4;2;
47810;PMS5003;33575;52.600;7.318;2022-08-01T13:55:21;5;5;
47810;PMS5003;33575;52.600;7.318;2022-08-01T13:57:51;4;3;
47810;PMS5003;33575;52.600;7.318;2022-08-01T14:00:21;6;5;
47810;PMS5003;33575;52.600;7.318;2022-08-01T14:02:52;4;4;
47810;PMS5003;33575;52.600;7.318;2022-08-01T14:05:22;4;4;
47810;PMS5003;33575;52.600;7.318;2022-08-01T14:07:57;5;5;
47810;PMS5003;33575;52.600;7.318;2022-08-01T14:10:23;5;4;
47810;PMS5003;33575;52.600;7.318;2022-08-01T14:12:53;4;4;
47810;PMS5003;33575;52.600;7.318;2022-08-01T14:15:28;3;3;
47810;PMS5003;33575;52.600;7.318;2022-08-01T14:17:53;5;4;
47810;PMS5003;33575;52.600;7.318;2022-08-01T14:20:23;4;4;
47810;PMS5003;33575;52.600;7.318;2022-08-01T14:22:53;5;4;
47810;PMS5003;33575;52.600;7.318;2022-08-01T14:25:28;4;3;
47810;PMS5003;33575;52.600;7.318;2022-08-01T14:27:54;4;4;
47810;PMS5003;33575;52.600;7.318;2022-08-01T14:30:24;4;4;
47810;PMS5003;33575;52.600;7.318;2022-08-01T14:32:54;4;3;
47810;PMS5003;33575;52.600;7.318;2022-08-01T14:35:24;3;3;
47810;PMS5003;33575;52.600;7.318;2022-08-01T14:37:58;5;3;
47810;PMS5003;33575;52.600;7.318;2022-08-01T14:40:25;4;3;
47810;PMS5003;33575;52.600;7.318;2022-08-01T14:42:55;4;4;
47810;PMS5003;33575;52.600;7.318;2022-08-01T14:45:25;6;4;
47810;PMS5003;33575;52.600;7.318;2022-08-01T14:47:55;2;2;
47810;PMS5003;33575;52.600;7.318;2022-08-01T14:50:26;6;5;
47810;PMS5003;33575;52.600;7.318;2022-08-01T14:52:56;4;4;
47810;PMS5003;33575;52.600;7.318;2022-08-01T14:55:26;6;6;
47810;PMS5003;33575;52.600;7.318;2022-08-01T14:57:56;4;4;
47810;PMS5003;33575;52.600;7.318;2022-08-01T15:00:37;3;3;
47810;PMS5003;33575;52.600;7.318;2022-08-01T15:07:57;5;4;
47810;PMS5003;33575;52.600;7.318;2022-08-01T15:17:58;7;5;
47810;PMS5003;33575;52.600;7.318;2022-08-01T15:20:29;6;6;
47810;PMS5003;33575;52.600;7.318;2022-08-01T15:22:59;4;3;
47810;PMS5003;33575;52.600;7.318;2022-08-01T15:25:34;5;4;
47810;PMS5003;33575;52.600;7.318;2022-08-01T15:27:59;6;5;
47810;PMS5003;33575;52.600;7.318;2022-08-01T15:30:29;4;3;
47810;PMS5003;33575;52.600;7.318;2022-08-01T15:33:00;4;3;
47810;PMS5003;33575;52.600;7.318;2022-08-01T15:35:30;4;4;
47810;PMS5003;33575;52.600;7.318;2022-08-01T15:38:00;4;4;
47810;PMS5003;33575;52.600;7.318;2022-08-01T15:40:30;5;4;
47810;PMS5003;33575;52.600;7.318;2022-08-01T15:43:01;5;4;
47810;PMS5003;33575;52.600;7.318;2022-08-01T15:45:36;4;4;
47810;PMS5003;33575;52.600;7.318;2022-08-01T15:48:01;3;3;
47810;PMS5003;33575;52.600;7.318;2022-08-01T15:50:31;5;4;
47810;PMS5003;33575;52.600;7.318;2022-08-01T15:53:01;6;5;
47810;PMS5003;33575;52.600;7.318;2022-08-01T15:55:32;3;3;
47810;PMS5003;33575;52.600;7.318;2022-08-01T15:58:02;3;3;
47810;PMS5003;33575;52.600;7.318;2022-08-01T16:00:37;3;3;
47810;PMS5003;33575;52.600;7.318;2022-08-01T16:03:02;3;3;
47810;PMS5003;33575;52.600;7.318;2022-08-01T16:05:32;2;2;
47810;PMS5003;33575;52.600;7.318;2022-08-01T16:08:03;4;4;
47810;PMS5003;33575;52.600;7.318;2022-08-01T16:10:33;4;3;
47810;PMS5003;33575;52.600;7.318;2022-08-01T16:13:08;2;2;
47810;PMS5003;33575;52.600;7.318;2022-08-01T16:15:37;5;4;
47810;PMS5003;33575;52.600;7.318;2022-08-01T16:18:04;4;4;
47810;PMS5003;33575;52.600;7.318;2022-08-01T16:20:34;5;5;
47810;PMS5003;33575;52.600;7.318;2022-08-01T16:23:04;3;3;
47810;PMS5003;33575;52.600;7.318;2022-08-01T16:25:34;3;3;
47810;PMS5003;33575;52.600;7.318;2022-08-01T16:28:04;5;4;
47810;PMS5003;33575;52.600;7.318;2022-08-01T16:30:35;7;5;
47810;PMS5003;33575;52.600;7.318;2022-08-01T16:33:10;4;4;
47810;PMS5003;33575;52.600;7.318;2022-08-01T16:35:37;4;4;
47810;PMS5003;33575;52.600;7.318;2022-08-01T16:38:05;5;5;
47810;PMS5003;33575;52.600;7.318;2022-08-01T16:40:40;4;4;
47810;PMS5003;33575;52.600;7.318;2022-08-01T16:43:06;6;6;
47810;PMS5003;33575;52.600;7.318;2022-08-01T16:45:40;5;5;
47810;PMS5003;33575;52.600;7.318;2022-08-01T16:48:06;5;4;
47810;PMS5003;33575;52.600;7.318;2022-08-01T16:50:36;5;5;
47810;PMS5003;33575;52.600;7.318;2022-08-01T16:53:06;4;4;
47810;PMS5003;33575;52.600;7.318;2022-08-01T16:55:41;3;3;
47810;PMS5003;33575;52.600;7.318;2022-08-01T16:58:12;5;4;
47810;PMS5003;33575;52.600;7.318;2022-08-01T17:00:37;3;3;
47810;PMS5003;33575;52.600;7.318;2022-08-01T17:03:12;3;3;
47810;PMS5003;33575;52.600;7.318;2022-08-01T17:05:38;5;4;
47810;PMS5003;33575;52.600;7.318;2022-08-01T17:08:08;6;5;
47810;PMS5003;33575;52.600;7.318;2022-08-01T17:10:38;4;3;
47810;PMS5003;33575;52.600;7.318;2022-08-01T17:13:10;3;3;
47810;PMS5003;33575;52.600;7.318;2022-08-01T17:15:38;5;4;
47810;PMS5003;33575;52.600;7.318;2022-08-01T17:18:08;5;5;
47810;PMS5003;33575;52.600;7.318;2022-08-01T17:20:39;4;3;
47810;PMS5003;33575;52.600;7.318;2022-08-01T17:23:09;3;2;
47810;PMS5003;33575;52.600;7.318;2022-08-01T17:25:39;6;4;
47810;PMS5003;33575;52.600;7.318;2022-08-01T17:28:09;4;3;
47810;PMS5003;33575;52.600;7.318;2022-08-01T17:30:39;6;4;
47810;PMS5003;33575;52.600;7.318;2022-08-01T17:33:10;5;3;
47810;PMS5003;33575;52.600;7.318;2022-08-01T17:35:40;4;4;
47810;PMS5003;33575;52.600;7.318;2022-08-01T17:38:10;3;3;
47810;PMS5003;33575;52.600;7.318;2022-08-01T17:40:41;2;2;
47810;PMS5003;33575;52.600;7.318;2022-08-01T17:43:11;3;3;
47810;PMS5003;33575;52.600;7.318;2022-08-01T17:45:46;5;5;
47810;PMS5003;33575;52.600;7.318;2022-08-01T17:48:11;3;3;
47810;PMS5003;33575;52.600;7.318;2022-08-01T17:50:42;3;3;
47810;PMS5003;33575;52.600;7.318;2022-08-01T17:53:13;3;2;